Time;durP1;ratioP1;P1;durP2;ratioP2;P2;SDS_P1;SDS_P2;PMS_P1;PMS_P2;Temp;Humidity;BMP_temperature;BMP_pressure;BME280_temperature;BME280_humidity;BME280_pressure;Samples;Min_cycle;Max_cycle;Signal;HPM_P1;HPM_P2
2023/09/17 00:01:46;;;;;;;34.45;24.92;;;20.10;99.90;;;20.45;87.13;100318.53;4869537;29;20060;-86
2023/09/17 00:04:15;;;;;;;31.90;25.08;;;20.10;99.90;;;20.44;86.77;100297.94;4916433;29;20147;-86
2023/09/17 00:06:44;;;;;;;33.92;23.95;;;20.10;99.90;;;20.44;87.50;100300.63;4916659;29;20095;-86
2023/09/17 00:09:12;;;;;;;33.92;24.92;;;20.10;99.90;;;20.39;87.65;100297.97;4885537;29;20044;-86
2023/09/17 00:11:42;;;;;;;34.38;25.85;;;20.10;99.90;;;20.37;88.39;100299.34;4870996;29;20421;-86
2023/09/17 00:14:10;;;;;;;33.55;25.27;;;20.10;99.90;;;20.37;88.13;100302.06;4909995;29;20067;-86
2023/09/17 00:16:38;;;;;;;31.77;24.52;;;20.10;99.90;;;20.37;87.52;100300.16;4917953;29;20048;-86
2023/09/17 00:19:06;;;;;;;34.38;25.88;;;20.10;99.90;;;20.39;87.82;100297.97;4900542;29;20514;-86
2023/09/17 00:21:35;;;;;;;33.72;26.02;;;20.10;99.90;;;20.38;87.86;100301.78;4916132;29;20048;-86
2023/09/17 00:24:02;;;;;;;33.75;24.88;;;20.10;99.90;;;20.36;87.02;100303.97;4886262;29;20058;-86
2023/09/17 00:26:30;;;;;;;33.72;25.40;;;20.00;99.90;;;20.34;87.51;100289.88;4919010;29;20070;-86
2023/09/17 00:28:57;;;;;;;36.92;26.00;;;20.00;99.90;;;20.34;87.35;100295.28;4885759;29;20048;-86
2023/09/17 00:31:25;;;;;;;33.55;24.17;;;20.00;99.90;;;20.33;87.10;100294.47;4900448;29;20055;-86
2023/09/17 00:33:53;;;;;;;34.65;26.20;;;20.00;99.90;;;20.32;87.13;100295.59;4900135;29;20052;-85
2023/09/17 00:36:21;;;;;;;35.58;26.25;;;20.00;99.90;;;20.28;87.50;100293.72;4900323;29;20040;-86
2023/09/17 00:38:49;;;;;;;34.92;27.10;;;20.00;99.90;;;20.30;87.36;100291.50;4900226;29;20048;-86
2023/09/17 00:41:17;;;;;;;37.95;26.35;;;20.00;99.90;;;20.32;87.29;100297.47;4899942;29;20056;-86
2023/09/17 00:43:45;;;;;;;33.72;25.40;;;20.00;99.90;;;20.29;87.46;100292.63;4900446;29;20472;-86
2023/09/17 00:46:14;;;;;;;32.95;24.45;;;20.00;99.90;;;20.26;87.48;100291.28;4915656;29;20127;-85
2023/09/17 00:48:43;;;;;;;35.13;26.13;;;20.00;99.90;;;20.26;87.17;100290.47;4900394;29;20050;-86
2023/09/17 00:51:11;;;;;;;37.97;25.83;;;20.00;99.90;;;20.26;87.74;100299.41;4869326;29;20505;-85
2023/09/17 00:53:40;;;;;;;32.53;24.50;;;20.00;99.90;;;20.27;87.16;100294.81;4899960;29;20043;-85
2023/09/17 00:56:12;;;;;;;32.53;24.77;;;20.00;99.90;;;20.27;87.69;100302.94;4916264;29;20052;-85
2023/09/17 00:58:40;;;;;;;35.33;24.95;;;20.00;99.90;;;20.29;87.60;100311.56;4899849;29;20139;-85
2023/09/17 01:01:09;;;;;;;30.92;23.70;;;20.00;99.90;;;20.27;87.73;100324.59;4884402;29;20052;-86
2023/09/17 01:03:37;;;;;;;32.03;25.23;;;19.90;99.90;;;20.26;87.67;100336.53;4918453;29;20071;-86
2023/09/17 01:06:06;;;;;;;35.50;24.75;;;20.00;99.90;;;20.23;87.30;100334.38;4888993;29;20040;-86
2023/09/17 01:08:36;;;;;;;29.23;23.80;;;20.00;99.90;;;20.25;87.92;100332.19;4904363;29;20048;-86
2023/09/17 01:11:04;;;;;;;31.33;24.52;;;20.00;99.90;;;20.26;87.61;100333.81;4919821;29;20055;-86
2023/09/17 01:13:51;;;;;;;33.03;24.17;;;20.00;99.90;;;20.24;87.23;100349.53;4872683;29;20402;-86
2023/09/17 01:16:18;;;;;;;25.67;21.30;;;19.90;99.90;;;20.22;86.96;100341.69;4905533;29;20043;-86
2023/09/17 01:18:47;;;;;;;29.48;22.98;;;20.00;99.90;;;20.22;87.46;100330.03;4903446;29;20143;-86
2023/09/17 01:21:24;;;;;;;28.88;22.23;;;19.90;99.90;;;20.21;87.15;100329.22;4919489;29;20536;-86
2023/09/17 01:24:03;;;;;;;28.33;22.08;;;19.90;99.90;;;20.21;86.67;100328.44;4904430;29;20063;-86
2023/09/17 01:26:32;;;;;;;29.05;21.90;;;19.90;99.90;;;20.21;86.77;100333.84;4920235;29;20040;-86
2023/09/17 01:29:04;;;;;;;27.80;21.90;;;19.90;99.90;;;20.19;86.45;100330.59;4920500;29;20036;-86
2023/09/17 01:31:34;;;;;;;26.00;21.70;;;19.90;99.90;;;20.20;86.39;100329.50;4920509;29;20536;-86
2023/09/17 01:34:03;;;;;;;27.60;22.52;;;19.90;99.90;;;20.19;85.88;100327.88;4920436;29;20486;-86
2023/09/17 01:36:36;;;;;;;26.08;21.42;;;19.90;99.90;;;20.16;85.69;100331.97;4903513;29;20044;-85
2023/09/17 01:39:13;;;;;;;25.30;20.35;;;19.80;99.90;;;20.14;85.36;100320.59;4903340;29;20072;-86
2023/09/17 01:41:41;;;;;;;24.90;19.08;;;19.80;99.90;;;20.11;84.91;100317.66;4920235;29;20408;-86
2023/09/17 01:44:12;;;;;;;23.52;18.65;;;19.80;99.90;;;20.10;84.69;100305.97;4895792;29;20417;-86
2023/09/17 01:46:42;;;;;;;23.23;19.38;;;19.80;99.90;;;20.11;84.19;100304.09;4902826;29;20044;-85
2023/09/17 01:49:12;;;;;;;27.65;19.75;;;19.80;99.90;;;20.10;84.05;100300.56;4920093;29;20115;-86
2023/09/17 01:51:40;;;;;;;24.20;19.05;;;19.80;99.90;;;20.12;84.21;100313.84;4918974;29;20119;-86
2023/09/17 01:54:09;;;;;;;22.88;16.65;;;19.80;99.90;;;20.11;84.17;100301.41;4903532;29;20516;-86
2023/09/17 01:56:37;;;;;;;26.13;19.77;;;19.80;99.90;;;20.09;83.90;100293.53;4903166;29;20609;-86
2023/09/17 01:59:06;;;;;;;25.73;20.27;;;19.80;99.90;;;20.02;83.75;100290.34;4887719;29;20536;-86
2023/09/17 02:01:35;;;;;;;23.67;18.95;;;19.70;99.90;;;20.04;nan;100293.56;4887805;29;20130;-86
2023/09/17 02:04:03;;;;;;;23.27;18.20;;;19.70;99.90;;;20.00;83.91;100290.59;4902930;29;20044;-86
2023/09/17 02:06:31;;;;;;;20.80;17.42;;;19.70;99.90;;;20.00;83.49;100296.00;4918607;29;20040;-86
2023/09/17 02:09:05;;;;;;;25.05;18.95;;;19.70;99.90;;;19.94;82.89;100294.41;4903276;29;20135;-86
2023/09/17 02:11:33;;;;;;;24.63;19.05;;;19.60;99.90;;;19.96;82.72;100294.13;4903621;29;20060;-86
2023/09/17 02:14:01;;;;;;;22.90;18.05;;;19.70;99.90;;;19.90;82.77;100290.66;4903227;29;20114;-86
2023/09/17 02:16:28;;;;;;;24.25;19.05;;;19.60;99.90;;;19.91;82.60;100288.75;4902172;29;20080;-86
2023/09/17 02:18:58;;;;;;;22.17;18.33;;;19.60;99.90;;;19.87;82.61;100288.50;4902553;29;20080;-86
2023/09/17 02:21:26;;;;;;;22.27;17.75;;;19.60;99.90;;;19.87;82.94;100283.09;4887605;29;20048;-86
2023/09/17 02:23:54;;;;;;;26.63;18.90;;;19.50;99.90;;;19.86;82.55;100284.16;4902520;29;20072;-86
2023/09/17 02:26:22;;;;;;;22.60;18.65;;;19.50;99.90;;;19.89;82.95;100278.19;4902642;29;20084;-85
2023/09/17 02:28:51;;;;;;;25.02;18.95;;;19.60;99.90;;;19.81;82.52;100281.47;4918226;29;20052;-85
2023/09/17 02:31:18;;;;;;;23.70;18.02;;;19.50;99.90;;;19.83;82.43;100278.50;4902902;29;20095;-86
2023/09/17 02:33:46;;;;;;;24.30;18.63;;;19.50;99.90;;;19.85;82.45;100271.72;4902531;29;20052;-86
2023/09/17 02:36:15;;;;;;;23.95;19.52;;;19.50;99.90;;;19.88;82.63;100275.78;4919189;29;20045;-86
2023/09/17 02:38:42;;;;;;;22.30;18.27;;;19.50;99.90;;;19.88;82.97;100279.28;4902276;29;20052;-86
2023/09/17 02:41:10;;;;;;;22.25;18.25;;;19.50;99.90;;;19.84;82.49;100270.09;4919492;29;20044;-86
2023/09/17 02:43:38;;;;;;;22.52;18.38;;;19.50;99.90;;;19.85;82.63;100260.09;4902972;29;20087;-86
2023/09/17 02:46:05;;;;;;;25.90;19.15;;;19.50;99.90;;;19.86;82.13;100259.81;4902733;29;20115;-86
2023/09/17 02:48:34;;;;;;;28.33;19.92;;;19.50;99.90;;;19.83;82.19;100263.09;4902319;29;20075;-86
2023/09/17 02:51:06;;;;;;;27.48;18.63;;;19.50;99.90;;;19.82;82.45;100261.47;4918299;29;20537;-86
2023/09/17 02:53:35;;;;;;;25.63;19.73;;;19.50;99.90;;;19.84;82.54;100266.59;4887402;29;20063;-86
2023/09/17 02:56:06;;;;;;;26.05;19.23;;;19.50;99.90;;;19.84;81.80;100258.47;4919159;29;20072;-86
2023/09/17 02:58:33;;;;;;;;;;;19.50;99.90;;;19.85;81.75;100271.72;4919522;29;20095;-85
2023/09/17 03:01:01;;;;;;;22.15;18.02;;;19.50;99.90;;;19.84;81.68;100272.00;4901612;29;20284;-85
2023/09/17 03:03:28;;;;;;;27.08;19.75;;;19.50;99.90;;;19.84;81.66;100272.81;4917467;29;20112;-86
2023/09/17 03:05:59;;;;;;;28.23;19.85;;;19.50;99.90;;;19.83;81.41;100265.78;4917482;29;20048;-85
2023/09/17 03:08:28;;;;;;;25.20;19.30;;;19.50;99.90;;;19.83;81.23;100273.09;4901796;29;20139;-85
2023/09/17 03:11:01;;;;;;;23.95;18.48;;;19.50;99.90;;;19.80;81.19;100258.22;4901883;29;20123;-86
2023/09/17 03:13:29;;;;;;;26.48;19.10;;;19.50;99.90;;;19.78;81.40;100249.56;4917525;29;20074;-86
2023/09/17 03:15:58;;;;;;;25.42;19.17;;;19.50;99.90;;;19.75;80.96;100256.34;4901558;29;20137;-86
2023/09/17 03:18:25;;;;;;;25.08;19.42;;;19.40;99.90;;;19.75;80.98;100250.13;4901671;29;20099;-85
2023/09/17 03:20:53;;;;;;;25.83;19.98;;;19.40;99.90;;;19.75;81.09;100250.13;4886276;29;20051;-85
2023/09/17 03:23:20;;;;;;;25.00;19.60;;;19.40;99.90;;;19.73;80.78;100252.31;4901749;29;20048;-86
2023/09/17 03:25:48;;;;;;;25.58;18.98;;;19.40;99.90;;;19.74;80.65;100248.50;4900955;29;20132;-85
2023/09/17 03:28:17;;;;;;;23.40;19.15;;;19.40;99.90;;;19.71;81.06;100251.75;4900852;29;20139;-85
2023/09/17 03:30:45;;;;;;;25.83;20.05;;;19.40;99.90;;;19.71;80.77;100255.25;4901266;29;20502;-85
2023/09/17 03:33:14;;;;;;;27.05;19.92;;;19.40;99.90;;;19.73;80.80;100263.94;4886334;29;20064;-85
2023/09/17 03:35:46;;;;;;;26.08;18.30;;;19.40;99.90;;;19.71;80.45;100254.47;4901473;29;20048;-85
2023/09/17 03:38:14;;;;;;;25.92;19.48;;;19.40;99.90;;;19.66;80.41;100247.16;4901603;29;20050;-86
2023/09/17 03:40:41;;;;;;;24.55;19.65;;;19.30;99.90;;;19.67;80.73;100248.81;4917100;29;20052;-86
2023/09/17 03:43:10;;;;;;;26.65;19.38;;;19.30;99.90;;;19.68;80.87;100241.50;4901316;29;20044;-86
2023/09/17 03:45:42;;;;;;;23.02;19.38;;;19.30;99.90;;;19.69;80.66;100245.81;4918183;29;20048;-86
2023/09/17 03:48:10;;;;;;;26.38;20.40;;;19.30;99.90;;;19.69;80.58;100237.69;4901048;29;20048;-86
2023/09/17 03:50:39;;;;;;;26.73;20.00;;;19.30;99.90;;;19.68;80.67;100238.78;4901058;29;20058;-86
2023/09/17 03:53:08;;;;;;;25.95;19.58;;;19.30;99.90;;;19.63;80.16;100238.81;4901094;29;20048;-86
2023/09/17 03:55:36;;;;;;;25.40;20.88;;;19.30;99.90;;;19.61;80.52;100232.84;4901078;29;20044;-86
2023/09/17 03:58:09;;;;;;;26.80;20.50;;;19.30;99.90;;;19.55;80.46;100240.16;4918006;29;20047;-86
2023/09/17 04:00:43;;;;;;;28.27;19.58;;;19.20;99.90;;;19.53;80.91;100243.16;4918257;29;20044;-85
2023/09/17 04:03:18;;;;;;;25.92;19.65;;;19.20;99.90;;;19.50;81.14;100235.56;4900914;29;20044;-85
2023/09/17 04:05:48;;;;;;;26.75;20.08;;;19.20;99.90;;;19.47;81.48;100232.59;4900604;29;20593;-85
2023/09/17 04:08:16;;;;;;;28.13;20.47;;;19.20;99.90;;;19.46;81.62;100231.78;4917892;29;20094;-85
2023/09/17 04:10:45;;;;;;;24.25;19.88;;;19.20;99.90;;;19.48;81.04;100228.84;4916415;29;20048;-85
2023/09/17 04:13:12;;;;;;;29.58;21.35;;;19.20;99.90;;;19.51;81.17;100233.69;4901072;29;20051;-85
2023/09/17 04:15:41;;;;;;;25.17;19.73;;;19.20;99.90;;;19.51;80.90;100234.47;4917777;29;20044;-85
2023/09/17 04:18:10;;;;;;;27.40;20.13;;;19.20;99.90;;;19.54;81.07;100233.94;4917070;29;20079;-85
2023/09/17 04:20:37;;;;;;;28.65;21.42;;;19.20;99.90;;;19.54;80.58;100231.22;4900526;29;20048;-85
2023/09/17 04:23:06;;;;;;;25.42;20.73;;;19.20;99.90;;;19.55;80.57;100232.03;4900408;29;20143;-86
2023/09/17 04:25:35;;;;;;;25.15;20.75;;;19.20;99.90;;;19.56;80.59;100230.94;4900800;29;20040;-85
2023/09/17 04:28:04;;;;;;;27.35;20.90;;;19.20;99.90;;;19.56;80.98;100242.56;4900687;29;20052;-85
2023/09/17 04:30:33;;;;;;;27.02;21.10;;;19.20;99.90;;;19.57;80.82;100235.28;4900697;29;20418;-85
2023/09/17 04:33:02;;;;;;;24.85;20.92;;;19.20;99.90;;;19.55;80.73;100230.16;4916292;29;20099;-85
2023/09/17 04:35:30;;;;;;;24.88;19.80;;;19.20;99.90;;;19.56;80.84;100228.25;4900320;29;20047;-85
2023/09/17 04:37:57;;;;;;;32.85;23.23;;;19.20;99.90;;;19.53;81.04;100224.22;4900340;29;20044;-85
2023/09/17 04:40:31;;;;;;;28.30;21.77;;;19.10;99.90;;;19.44;81.32;100225.88;4916201;29;20062;-85
2023/09/17 04:43:04;;;;;;;28.55;21.67;;;19.10;99.90;;;19.47;81.48;100221.78;4901115;29;20143;-85
2023/09/17 04:45:37;;;;;;;28.92;21.27;;;19.10;99.90;;;19.47;81.44;100222.63;4884919;29;20048;-85
2023/09/17 04:48:24;;;;;;;34.67;23.52;;;19.10;99.90;;;19.48;81.64;100221.53;4900531;29;20048;-85
2023/09/17 04:50:52;;;;;;;29.25;23.30;;;19.10;99.90;;;19.48;81.74;100223.44;4885161;29;20047;-85
2023/09/17 04:53:19;;;;;;;27.25;23.15;;;19.00;99.90;;;19.43;81.61;100220.75;4900374;29;20099;-85
2023/09/17 04:55:50;;;;;;;30.92;23.40;;;19.10;99.90;;;19.40;82.02;100227.50;4900929;29;20044;-85
2023/09/17 04:58:21;;;;;;;32.65;23.38;;;19.10;99.90;;;19.42;81.88;100224.50;4900433;29;20044;-85
2023/09/17 05:00:50;;;;;;;30.40;23.77;;;19.00;99.90;;;19.43;81.87;100232.38;4900604;29;20109;-85
2023/09/17 05:03:19;;;;;;;29.45;22.17;;;19.10;99.90;;;19.41;81.95;100231.00;4900119;29;20044;-85
2023/09/17 05:05:49;;;;;;;28.65;22.98;;;19.10;99.90;;;19.37;82.37;100228.03;4853919;29;20398;-85
2023/09/17 05:08:26;;;;;;;33.95;24.10;;;19.00;99.90;;;19.37;82.22;100227.22;4917441;29;20111;-85
2023/09/17 05:10:55;;;;;;;28.33;22.35;;;19.00;99.90;;;19.38;82.44;100226.16;4915932;29;20619;-85
2023/09/17 05:13:24;;;;;;;33.55;24.92;;;19.00;99.90;;;19.40;82.41;100227.50;4900644;29;20044;-85
2023/09/17 05:15:53;;;;;;;33.90;25.15;;;19.10;99.90;;;19.39;82.02;100228.59;4915745;29;20044;-85
2023/09/17 05:18:22;;;;;;;32.10;24.98;;;19.00;99.90;;;19.39;82.04;100228.59;4900428;29;20095;-85
2023/09/17 05:20:54;;;;;;;33.00;23.95;;;19.00;99.90;;;19.37;82.47;100230.75;4885076;29;20073;-85
2023/09/17 05:23:23;;;;;;;33.10;25.05;;;19.10;99.90;;;19.37;82.29;100233.44;4916023;29;20051;-85
2023/09/17 05:25:56;;;;;;;33.58;25.00;;;19.00;99.90;;;19.37;82.29;100228.03;4870266;29;20454;-85
2023/09/17 05:28:27;;;;;;;31.48;24.38;;;19.00;99.90;;;19.38;82.33;100231.56;4900716;29;20052;-85
2023/09/17 05:30:59;;;;;;;33.33;24.35;;;19.00;99.90;;;19.38;82.25;100229.69;4900354;29;20052;-85
2023/09/17 05:33:28;;;;;;;30.90;24.25;;;19.00;99.90;;;19.39;82.62;100236.69;4915785;29;20052;-85
2023/09/17 05:35:59;;;;;;;30.23;23.70;;;19.00;99.90;;;19.37;82.17;100233.44;4900818;29;20044;-85
2023/09/17 05:38:29;;;;;;;32.60;24.65;;;19.00;99.90;;;19.38;82.17;100239.69;4900740;29;20056;-85
2023/09/17 05:40:57;;;;;;;30.10;24.38;;;19.00;99.90;;;19.39;82.45;100244.81;4916171;29;20048;-85
2023/09/17 05:43:25;;;;;;;34.28;25.98;;;19.00;99.90;;;19.40;82.68;100240.22;4916884;29;20131;-85
2023/09/17 05:45:56;;;;;;;34.47;25.42;;;19.00;99.90;;;19.40;82.58;100232.09;4915654;29;20604;-85
2023/09/17 05:48:28;;;;;;;36.95;25.52;;;19.00;99.90;;;19.40;82.56;100224.78;4885486;29;20079;-85
2023/09/17 05:50:58;;;;;;;35.67;25.02;;;19.00;99.90;;;19.41;82.44;100229.09;4886567;29;20074;-85
2023/09/17 05:53:28;;;;;;;32.53;25.75;;;19.10;99.90;;;19.41;82.17;100226.41;4887378;29;20048;-85
2023/09/17 05:55:56;;;;;;;31.80;25.67;;;19.10;99.90;;;19.43;82.58;100231.56;4904467;29;20048;-86
2023/09/17 05:58:24;;;;;;;35.50;25.42;;;19.10;99.90;;;19.41;82.47;100222.91;4906819;29;20059;-86
2023/09/17 06:00:53;;;;;;;30.02;25.15;;;19.10;99.90;;;19.41;82.58;100228.31;4872892;29;20488;-86
2023/09/17 06:03:21;;;;;;;35.80;26.50;;;19.10;99.90;;;19.41;82.42;100228.31;4874778;29;20044;-86
2023/09/17 06:05:49;;;;;;;36.17;26.52;;;19.00;99.90;;;19.40;82.60;100232.91;4889690;29;20513;-85
2023/09/17 06:08:18;;;;;;;35.15;27.08;;;19.00;99.90;;;19.39;82.76;100225.88;4920652;29;20044;-85
2023/09/17 06:10:46;;;;;;;34.30;25.88;;;19.00;99.90;;;19.40;83.06;100229.41;4920126;29;20048;-85
2023/09/17 06:13:15;;;;;;;35.65;27.13;;;19.00;99.90;;;19.40;82.63;100227.50;4904615;29;20044;-85
2023/09/17 06:15:45;;;;;;;35.28;26.35;;;18.70;99.90;;;19.38;82.95;100226.16;4904380;29;20509;-85
2023/09/17 06:18:12;;;;;;;34.42;26.13;;;19.00;99.90;;;19.38;83.04;100229.69;4904328;29;20124;-86
2023/09/17 06:20:40;;;;;;;35.25;26.90;;;19.00;99.90;;;19.40;83.16;100223.97;4903650;29;20059;-86
2023/09/17 06:23:09;;;;;;;33.33;25.02;;;19.10;99.90;;;19.38;83.17;100218.06;4920618;29;20050;-86
2023/09/17 06:25:39;;;;;;;34.65;26.20;;;19.10;99.90;;;19.41;83.07;100220.19;4888618;29;20125;-86
2023/09/17 06:28:08;;;;;;;36.38;26.48;;;19.10;99.90;;;19.42;83.25;100228.03;4903293;29;20150;-86
2023/09/17 06:30:36;;;;;;;34.55;26.15;;;19.10;99.90;;;19.44;83.39;100225.88;4903796;29;20058;-86
2023/09/17 06:33:11;;;;;;;33.30;26.67;;;19.10;99.90;;;19.44;83.34;100220.47;4903696;29;20506;-86
2023/09/17 06:35:39;;;;;;;36.08;28.02;;;19.10;99.90;;;19.45;83.46;100224.78;4900858;29;20104;-86
2023/09/17 06:38:07;;;;;;;35.63;26.50;;;19.10;99.90;;;19.46;84.00;100226.38;4903312;29;20048;-86
2023/09/17 06:40:35;;;;;;;36.47;27.75;;;19.10;99.90;;;19.48;83.63;100216.13;4888765;29;20468;-86
2023/09/17 06:43:08;;;;;;;35.47;27.83;;;19.20;99.90;;;19.51;83.26;100225.56;4902599;29;20421;-85
2023/09/17 06:45:36;;;;;;;37.28;28.60;;;19.20;99.90;;;19.52;84.08;100224.47;4902771;29;20052;-86
2023/09/17 06:48:09;;;;;;;36.50;28.27;;;19.20;99.90;;;19.51;83.74;100218.25;4917655;29;20046;-87
2023/09/17 06:50:40;;;;;;;38.13;28.38;;;19.10;99.90;;;19.53;83.98;100224.22;4887872;29;20123;-86
2023/09/17 06:53:10;;;;;;;38.42;29.40;;;19.20;99.90;;;19.56;84.03;100220.94;4902169;29;20110;-86
2023/09/17 06:55:39;;;;;;;38.17;29.95;;;19.30;99.90;;;19.59;84.26;100222.28;4902616;29;20099;-86
2023/09/17 06:58:08;;;;;;;38.67;29.50;;;19.30;99.90;;;19.62;84.97;100215.53;4902543;29;20107;-88
2023/09/17 07:00:36;;;;;;;37.38;30.25;;;19.30;99.90;;;19.70;84.69;100214.97;4919270;29;20074;-89
2023/09/17 07:03:05;;;;;;;37.45;29.23;;;19.40;99.90;;;19.80;85.18;100207.59;4886357;29;20052;-89
2023/09/17 07:05:32;;;;;;;40.50;31.80;;;19.60;99.90;;;19.89;85.01;100210.53;4901497;29;20040;-89
2023/09/17 07:08:00;;;;;;;39.78;31.00;;;19.70;99.90;;;19.95;85.76;100206.69;4901634;29;20086;-89
2023/09/17 07:10:27;;;;;;;39.60;29.75;;;19.80;99.90;;;20.04;86.34;100209.63;4919930;29;20044;-89
2023/09/17 07:12:54;;;;;;;47.28;33.83;;;19.90;99.90;;;20.11;86.65;100209.34;4919590;29;20055;-90
2023/09/17 07:15:25;;;;;;;41.83;32.47;;;20.00;99.90;;;20.13;86.55;100210.66;4918760;29;20143;-89
2023/09/17 07:17:55;;;;;;;43.33;31.88;;;20.00;99.90;;;20.17;86.18;100216.34;4918640;29;20048;-88
2023/09/17 07:20:26;;;;;;;38.03;29.10;;;20.10;99.90;;;20.16;85.54;100206.59;4901744;29;20112;-89
2023/09/17 07:22:55;;;;;;;41.72;30.60;;;20.10;99.90;;;20.16;85.49;100217.44;4902030;29;20506;-89
2023/09/17 07:25:23;;;;;;;39.25;29.40;;;20.10;99.90;;;20.19;85.21;100212.25;4886107;29;20575;-89
2023/09/17 07:27:50;;;;;;;38.08;29.80;;;20.10;99.90;;;20.23;85.76;100212.50;4901955;29;20465;-88
2023/09/17 07:30:18;;;;;;;41.70;30.45;;;20.10;99.90;;;20.24;85.79;100216.81;4918827;29;20048;-87
2023/09/17 07:32:47;;;;;;;38.63;28.92;;;20.10;99.90;;;20.26;86.67;100212.75;4918101;29;20108;-88
2023/09/17 07:35:16;;;;;;;38.20;29.25;;;20.20;99.90;;;20.31;86.44;100214.59;4901479;29;20501;-88
2023/09/17 07:37:43;;;;;;;39.65;31.08;;;20.20;99.90;;;20.33;86.26;100213.22;4901648;29;20047;-87
2023/09/17 07:40:14;;;;;;;39.55;28.77;;;20.20;99.90;;;20.40;87.14;100210.22;4901333;29;20100;-86
2023/09/17 07:42:42;;;;;;;29.05;23.05;;;20.30;99.90;;;20.51;88.79;100216.38;4917451;29;20462;-87
2023/09/17 07:45:12;;;;;;;24.52;18.77;;;20.50;99.90;;;20.59;90.37;100210.34;4917885;29;20088;-87
2023/09/17 07:47:40;;;;;;;20.85;15.65;;;20.60;99.90;;;20.72;91.46;100211.59;4902080;29;20040;-87
2023/09/17 07:50:10;;;;;;;16.13;12.02;;;20.80;99.90;;;20.81;90.66;100212.59;4886141;29;20048;-87
2023/09/17 07:52:41;;;;;;;18.15;12.63;;;20.90;99.90;;;20.91;90.79;100223.34;4901460;29;20066;-87
2023/09/17 07:55:10;;;;;;;13.35;10.25;;;21.10;99.90;;;20.99;89.44;100213.78;4918325;29;20063;-87
2023/09/17 07:57:37;;;;;;;15.30;10.73;;;21.20;99.90;;;21.01;87.27;100225.94;4901396;29;20040;-87
2023/09/17 08:00:07;;;;;;;12.80;9.68;;;21.30;99.90;;;21.13;88.57;100230.16;4886456;29;20083;-87
2023/09/17 08:02:40;;;;;;;14.90;10.15;;;21.40;99.90;;;21.19;88.25;100213.56;4887812;29;20056;-87
2023/09/17 08:05:09;;;;;;;12.48;9.88;;;21.50;99.90;;;21.29;88.80;100223.50;4918367;29;20063;-87
2023/09/17 08:07:37;;;;;;;15.57;9.43;;;21.50;99.90;;;21.37;88.58;100219.34;4901286;29;20557;-87
2023/09/17 08:10:06;;;;;;;12.85;8.40;;;21.60;99.90;;;21.42;87.38;100222.00;4901010;29;20478;-87
2023/09/17 08:12:34;;;;;;;12.55;8.88;;;21.70;99.90;;;21.47;86.66;100220.06;4900559;29;20466;-87
2023/09/17 08:15:01;;;;;;;19.50;8.10;;;21.70;99.90;;;21.51;85.87;100221.09;4900908;29;20052;-87
2023/09/17 08:17:32;;;;;;;16.73;8.07;;;21.80;99.90;;;21.57;86.15;100230.00;4916681;29;20070;-87
2023/09/17 08:20:02;;;;;;;12.05;7.32;;;21.80;99.90;;;21.59;83.10;100225.06;4886727;29;20111;-87
2023/09/17 08:22:32;;;;;;;9.15;6.88;;;21.90;99.90;;;21.57;83.27;100236.22;4916576;29;20441;-87
2023/09/17 08:25:00;;;;;;;12.35;7.15;;;21.80;99.90;;;21.58;82.08;100226.97;4869760;29;20159;-87
2023/09/17 08:27:27;;;;;;;9.82;6.40;;;21.80;99.90;;;21.56;80.05;100228.34;4900750;29;20047;-87
2023/09/17 08:29:55;;;;;;;8.77;6.82;;;21.80;99.90;;;21.60;82.88;100232.09;4900514;29;20151;-87
2023/09/17 08:32:25;;;;;;;9.77;6.47;;;21.90;99.90;;;21.65;81.86;100231.25;4885199;29;20087;-87
2023/09/17 08:34:55;;;;;;;13.02;6.93;;;21.90;99.90;;;21.67;81.27;100229.88;4900641;29;20123;-87
2023/09/17 08:37:31;;;;;;;9.52;6.63;;;21.90;99.90;;;21.68;80.94;100236.91;4900702;29;20563;-87
2023/09/17 08:39:59;;;;;;;11.57;6.85;;;21.90;99.90;;;21.67;80.96;100237.16;4900891;29;20103;-87
2023/09/17 08:42:27;;;;;;;8.65;6.43;;;21.90;99.90;;;21.66;81.29;100233.66;4917578;29;20076;-87
2023/09/17 08:44:58;;;;;;;8.38;6.30;;;21.90;99.90;;;21.62;80.04;100240.78;4900681;29;20048;-87
2023/09/17 08:47:28;;;;;;;10.05;6.18;;;21.90;99.90;;;21.56;79.94;100241.94;4900773;29;20044;-87
2023/09/17 08:49:59;;;;;;;11.35;6.63;;;21.80;99.90;;;21.66;81.62;100241.00;4900371;29;20156;-87
2023/09/17 08:52:28;;;;;;;;;;;21.90;99.90;;;21.72;81.11;100231.72;4901237;29;20044;-87
2023/09/17 08:54:58;;;;;;;10.88;6.30;;;21.90;99.90;;;21.73;81.50;100234.13;4900506;29;19929;-87
2023/09/17 08:57:31;;;;;;;8.00;6.13;;;22.00;99.90;;;21.74;80.01;100234.94;4901044;29;20108;-87
2023/09/17 09:00:08;;;;;;;7.80;5.85;;;22.00;99.90;;;21.73;80.05;100238.75;4900511;29;20563;-88
2023/09/17 09:02:44;;;;;;;10.05;5.90;;;22.00;99.90;;;21.69;79.99;100233.09;4916316;29;20048;-88
2023/09/17 09:05:15;;;;;;;12.60;5.90;;;21.90;99.90;;;21.69;79.86;100235.00;4917558;29;20123;-87
2023/09/17 09:07:44;;;;;;;11.48;6.40;;;21.90;99.90;;;21.70;81.03;100234.69;4917294;29;20133;-87
2023/09/17 09:10:16;;;;;;;9.20;6.05;;;21.90;99.90;;;21.74;81.52;100240.34;4916897;29;20124;-87
2023/09/17 09:12:44;;;;;;;9.55;6.32;;;21.90;99.90;;;21.78;79.37;100242.19;4900103;29;20495;-87
2023/09/17 09:15:11;;;;;;;9.60;6.10;;;22.00;99.90;;;21.83;78.99;100235.91;4892790;29;20048;-87
2023/09/17 09:17:39;;;;;;;9.90;6.25;;;22.00;99.90;;;21.87;80.01;100238.84;4900269;29;20040;-87
2023/09/17 09:20:10;;;;;;;9.63;7.00;;;22.10;99.90;;;21.96;80.04;100237.91;4885126;29;20044;-88
2023/09/17 09:22:40;;;;;;;9.23;6.60;;;22.20;99.90;;;22.05;80.78;100236.13;4900557;29;20048;-88
2023/09/17 09:25:10;;;;;;;9.88;5.90;;;22.30;99.90;;;21.98;76.86;100235.69;4917323;29;20050;-87
2023/09/17 09:27:40;;;;;;;9.77;6.18;;;22.30;99.90;;;22.04;79.99;100237.22;4919692;29;20442;-87
2023/09/17 09:30:11;;;;;;;8.10;5.88;;;22.30;99.90;;;22.15;79.38;100245.25;4903797;29;20142;-88
2023/09/17 09:32:39;;;;;;;9.35;6.25;;;22.40;99.90;;;22.24;77.56;100238.06;4919353;29;20498;-88
2023/09/17 09:35:09;;;;;;;8.15;5.13;;;22.50;99.90;;;22.29;76.21;100241.50;4920555;29;20123;-86
2023/09/17 09:37:40;;;;;;;9.38;5.55;;;22.60;99.90;;;22.34;75.62;100241.44;4921012;29;20055;-88
2023/09/17 09:40:14;;;;;;;9.75;6.03;;;22.70;99.90;;;22.42;76.63;100245.41;4906703;29;20052;-90
2023/09/17 09:42:46;;;;;;;11.65;5.55;;;22.80;99.90;;;22.49;75.78;100245.81;4873385;29;20052;-90
2023/09/17 09:45:15;;;;;;;8.07;5.68;;;22.80;99.90;;;22.50;74.83;100239.31;4888559;29;20052;-89
2023/09/17 09:47:49;;;;;;;7.53;5.60;;;22.90;99.90;;;22.47;74.54;100241.78;4887579;29;20059;-89
2023/09/17 09:50:24;;;;;;;7.75;5.50;;;22.80;99.90;;;22.49;74.30;100234.94;4903686;29;20052;-90
2023/09/17 09:52:54;;;;;;;9.98;5.70;;;22.80;99.90;;;22.61;76.06;100238.03;4920003;29;20501;-89
2023/09/17 09:55:27;;;;;;;9.80;5.22;;;22.80;99.90;;;22.66;74.30;100239.84;4903484;29;20044;-90
2023/09/17 09:57:57;;;;;;;9.73;5.85;;;23.00;99.90;;;22.60;74.20;100239.13;4920339;29;20051;-89
2023/09/17 10:00:32;;;;;;;10.10;6.07;;;22.90;99.90;;;22.57;72.84;100236.19;4887347;29;20051;-89
2023/09/17 10:02:59;;;;;;;10.13;6.05;;;22.90;99.90;;;22.61;74.29;100248.09;4903210;29;20055;-88
2023/09/17 10:05:34;;;;;;;8.25;5.32;;;22.90;99.90;;;22.66;74.29;100241.75;4919829;29;20044;-88
2023/09/17 10:08:04;;;;;;;8.70;5.43;;;22.90;99.90;;;22.59;72.74;100244.84;4902827;29;20056;-88
2023/09/17 10:10:32;;;;;;;8.15;5.35;;;22.90;99.90;;;22.53;73.90;100252.28;4919623;29;20612;-89
2023/09/17 10:13:04;;;;;;;9.70;5.57;;;22.80;99.90;;;22.40;72.31;100246.78;4903624;29;20044;-89